createdAt,value
2024-05-09T00:02:32.587Z,12.73
2024-05-09T00:05:06.081Z,15.20
2024-05-09T00:07:36.886Z,13.20
2024-05-09T00:10:11.803Z,12.45
2024-05-09T00:12:50.739Z,11.80
2024-05-09T00:15:21.344Z,12.30
2024-05-09T00:17:52.471Z,15.88
2024-05-09T00:20:35.052Z,12.85
2024-05-09T00:23:11.607Z,12.98
2024-05-09T00:25:43.805Z,13.68
2024-05-09T00:28:17.717Z,14.68
2024-05-09T00:30:50.977Z,12.05
2024-05-09T00:33:21.943Z,14.82
2024-05-09T00:35:58.350Z,15.02
2024-05-09T00:38:33.426Z,12.70
2024-05-09T00:41:06.965Z,11.85
2024-05-09T00:43:37.681Z,14.90
2024-05-09T00:46:08.904Z,16.70
2024-05-09T00:48:40.168Z,13.85
2024-05-09T00:51:14.025Z,13.32
2024-05-09T00:53:52.681Z,14.13
2024-05-09T00:56:27.479Z,18.05
2024-05-09T00:59:03.575Z,14.98
2024-05-09T01:01:37.950Z,15.50
2024-05-09T01:04:09.179Z,15.10
2024-05-09T01:06:42.691Z,15.90
2024-05-09T01:09:13.425Z,12.98
2024-05-09T01:11:44.694Z,14.90
2024-05-09T01:14:17.961Z,14.85
2024-05-09T01:16:55.732Z,15.88
2024-05-09T01:19:32.976Z,14.38
2024-05-09T01:22:08.278Z,15.85
2024-05-09T01:24:41.685Z,15.80
2024-05-09T01:27:12.332Z,14.48
2024-05-09T01:29:42.914Z,11.43
2024-05-09T01:32:13.750Z,12.50
2024-05-09T01:34:44.478Z,13.32
2024-05-09T01:37:17.994Z,14.38
2024-05-09T01:39:52.244Z,14.93
2024-05-09T01:42:22.839Z,14.20
2024-05-09T01:44:53.576Z,14.25
2024-05-09T01:47:25.469Z,13.73
2024-05-09T01:49:57.779Z,16.58
2024-05-09T01:52:28.728Z,13.45
2024-05-09T01:55:06.502Z,14.95
2024-05-09T01:57:37.656Z,14.30
2024-05-09T02:00:10.594Z,15.37
2024-05-09T02:02:42.549Z,13.60
2024-05-09T02:05:14.383Z,13.60
2024-05-09T02:07:45.136Z,18.70
2024-05-09T02:10:26.196Z,14.70
2024-05-09T02:13:05.393Z,14.77
2024-05-09T02:15:39.040Z,14.98
2024-05-09T02:18:11.211Z,14.70
2024-05-09T02:20:44.125Z,16.45
2024-05-09T02:23:15.354Z,18.15
2024-05-09T02:25:49.934Z,15.68
2024-05-09T02:28:21.334Z,17.45
2024-05-09T02:30:54.740Z,19.50
2024-05-09T02:33:25.663Z,18.65
2024-05-09T02:35:56.471Z,18.15
2024-05-09T02:38:25.611Z,15.82
2024-05-09T02:40:58.974Z,17.80
2024-05-09T02:43:26.892Z,14.52
2024-05-09T02:45:57.564Z,17.75
2024-05-09T02:48:25.967Z,16.65
2024-05-09T02:50:57.048Z,15.35
2024-05-09T02:53:25.360Z,13.32
2024-05-09T02:55:58.690Z,15.93
2024-05-09T02:58:26.859Z,18.15
2024-05-09T03:00:57.551Z,13.27
2024-05-09T03:03:26.127Z,14.43
2024-05-09T03:05:56.946Z,16.08
2024-05-09T03:08:25.222Z,15.00
2024-05-09T03:10:58.668Z,14.68
2024-05-09T03:13:26.717Z,15.07
2024-05-09T03:15:57.327Z,13.13
2024-05-09T03:18:47.766Z,19.15
2024-05-09T03:21:31.651Z,13.77
2024-05-09T03:23:59.835Z,15.77
2024-05-09T03:26:35.934Z,15.30
2024-05-09T03:29:10.103Z,14.15
2024-05-09T03:31:42.126Z,15.13
2024-05-09T03:34:11.439Z,12.75
2024-05-09T03:36:45.944Z,16.25
2024-05-09T03:39:20.085Z,15.80
2024-05-09T03:41:55.253Z,15.50
2024-05-09T03:44:26.152Z,17.27
2024-05-09T03:46:54.361Z,19.75
2024-05-09T03:49:28.223Z,12.80
2024-05-09T03:51:58.606Z,15.88
2024-05-09T03:54:37.829Z,12.02
2024-05-09T03:57:12.308Z,12.45
2024-05-09T03:59:42.953Z,12.70
2024-05-09T04:02:13.989Z,15.73
2024-05-09T04:04:45.429Z,13.40
2024-05-09T04:07:29.559Z,13.20
2024-05-09T04:10:01.403Z,15.13
2024-05-09T04:12:32.081Z,12.90
2024-05-09T04:15:03.100Z,13.27
2024-05-09T04:17:34.383Z,13.60
2024-05-09T04:20:21.374Z,9.68
2024-05-09T04:23:00.092Z,11.57
2024-05-09T04:25:28.319Z,12.13
2024-05-09T04:28:02.809Z,13.98
2024-05-09T04:30:41.304Z,13.23
2024-05-09T04:33:15.347Z,10.90
2024-05-09T04:35:53.799Z,10.82
2024-05-09T04:38:27.315Z,12.10
2024-05-09T04:40:58.811Z,14.18
2024-05-09T04:43:33.718Z,10.00
2024-05-09T04:46:09.443Z,9.75
2024-05-09T04:48:43.389Z,12.90
2024-05-09T04:51:11.807Z,10.98
2024-05-09T04:53:42.653Z,13.55
2024-05-09T04:56:13.201Z,12.45
2024-05-09T04:58:49.414Z,10.48
2024-05-09T05:01:17.618Z,10.20
2024-05-09T05:03:57.729Z,9.60
2024-05-09T05:06:25.807Z,7.15
2024-05-09T05:09:00.358Z,10.65
2024-05-09T05:11:29.824Z,9.73
2024-05-09T05:14:03.300Z,9.50
2024-05-09T05:16:33.174Z,9.20
2024-05-09T05:19:05.851Z,14.77
2024-05-09T05:21:40.933Z,8.43
2024-05-09T05:24:13.939Z,8.48
2024-05-09T05:26:45.774Z,7.75
2024-05-09T05:29:20.953Z,10.20
2024-05-09T05:31:50.675Z,11.00
2024-05-09T05:34:25.067Z,12.60
2024-05-09T05:36:58.881Z,10.93
2024-05-09T05:39:32.888Z,7.95
2024-05-09T05:42:00.949Z,8.87
2024-05-09T05:44:34.234Z,13.48
2024-05-09T05:47:02.304Z,10.30
2024-05-09T05:49:33.062Z,9.60
2024-05-09T05:52:01.117Z,10.27
2024-05-09T05:54:31.929Z,9.20
2024-05-09T05:57:00.000Z,10.25
2024-05-09T05:59:30.710Z,9.27
2024-05-09T06:02:01.626Z,8.65
2024-05-09T06:04:32.319Z,11.13
2024-05-09T06:07:00.321Z,11.18
2024-05-09T06:09:31.082Z,9.52
2024-05-09T06:12:01.976Z,8.57
2024-05-09T06:14:33.563Z,7.97
2024-05-09T06:17:06.946Z,8.82
2024-05-09T06:23:49.019Z,7.20
2024-05-09T06:23:55.032Z,6.50
2024-05-09T06:26:17.128Z,6.60
2024-05-09T06:28:47.738Z,7.78
2024-05-09T06:31:15.910Z,8.35
2024-05-09T06:33:49.499Z,8.10
2024-05-09T06:36:17.590Z,6.18
2024-05-09T06:38:49.920Z,5.15
2024-05-09T06:41:18.059Z,7.05
2024-05-09T06:43:56.445Z,7.93
2024-05-09T06:49:04.506Z,6.13
2024-05-09T06:51:37.577Z,5.60
2024-05-09T06:54:11.190Z,6.50
2024-05-09T06:56:43.056Z,9.90
2024-05-09T06:59:16.818Z,6.85
2024-05-09T07:03:31.364Z,5.25
2024-05-09T07:11:18.168Z,5.70
2024-05-09T07:13:57.815Z,8.50
2024-05-09T07:16:34.101Z,5.93
2024-05-09T07:19:04.891Z,7.78
2024-05-09T07:21:44.204Z,6.97
2024-05-09T07:24:15.108Z,6.88
2024-05-09T07:26:58.852Z,5.17
2024-05-09T07:29:34.051Z,5.63
2024-05-09T07:32:06.885Z,8.23
2024-05-09T07:34:43.096Z,6.07
2024-05-09T07:37:17.832Z,6.72
2024-05-09T07:39:47.771Z,7.15
2024-05-09T07:42:23.882Z,6.45
2024-05-09T07:45:21.065Z,5.88
2024-05-09T07:53:38.493Z,7.43
2024-05-09T07:56:22.694Z,6.20
2024-05-09T07:59:04.013Z,6.32
2024-05-09T08:06:05.297Z,5.57
2024-05-09T08:08:33.323Z,5.15
2024-05-09T08:11:06.611Z,7.13
2024-05-09T08:13:35.001Z,6.78
2024-05-09T08:16:09.144Z,5.15
2024-05-09T08:18:37.502Z,6.55
2024-05-09T08:21:08.800Z,7.97
2024-05-09T08:23:36.820Z,7.13
2024-05-09T08:26:07.671Z,5.15
2024-05-09T08:28:49.748Z,5.67
2024-05-09T08:31:23.412Z,6.70
2024-05-09T08:33:51.839Z,6.00
2024-05-09T08:36:23.817Z,7.25
2024-05-09T08:39:03.344Z,4.80
2024-05-09T08:41:36.416Z,7.20
2024-05-09T08:44:18.447Z,5.47
2024-05-09T08:47:18.117Z,6.90
2024-05-09T08:49:49.528Z,6.00
2024-05-09T08:52:21.742Z,7.28
2024-05-09T08:54:54.875Z,9.05
2024-05-09T08:57:31.153Z,8.38
2024-05-09T09:00:08.039Z,5.55
2024-05-09T09:02:45.327Z,7.07
2024-05-09T09:05:21.792Z,5.53
2024-05-09T09:07:52.179Z,5.97
2024-05-09T09:10:53.289Z,5.63
2024-05-09T09:13:52.478Z,5.45
2024-05-09T09:16:45.410Z,5.68
2024-05-09T09:19:30.839Z,7.53
2024-05-09T09:22:02.647Z,6.00
2024-05-09T09:24:35.830Z,6.97
2024-05-09T09:27:08.251Z,6.35
2024-05-09T09:29:55.572Z,5.80
2024-05-09T09:32:38.054Z,6.65
2024-05-09T09:35:10.729Z,4.97
2024-05-09T09:37:53.019Z,5.20
2024-05-09T09:40:31.671Z,6.22
2024-05-09T09:43:14.268Z,5.07
2024-05-09T09:46:12.912Z,5.07
2024-05-09T09:48:46.233Z,8.73
2024-05-09T09:51:23.759Z,7.90
2024-05-09T09:53:56.397Z,4.80
2024-05-09T09:56:34.037Z,7.88
2024-05-09T09:59:31.798Z,4.75
2024-05-09T10:02:01.854Z,6.60
2024-05-09T10:04:36.053Z,3.78
2024-05-09T10:07:11.226Z,4.82
2024-05-09T10:09:45.056Z,6.03
2024-05-09T10:12:19.989Z,10.68
2024-05-09T10:15:00.959Z,5.32
2024-05-09T10:17:35.000Z,5.72
2024-05-09T10:20:18.234Z,5.40
2024-05-09T10:22:56.692Z,6.45
2024-05-09T10:25:31.119Z,7.15
2024-05-09T10:28:16.049Z,6.97
2024-05-09T10:30:50.359Z,5.60
2024-05-09T10:33:24.572Z,7.43
2024-05-09T10:35:56.540Z,6.80
2024-05-09T10:41:16.592Z,4.55
2024-05-09T10:43:51.541Z,6.65
2024-05-09T10:46:34.554Z,4.43
2024-05-09T10:49:19.335Z,8.27
2024-05-09T10:52:09.255Z,4.82
2024-05-09T10:54:48.011Z,4.47
2024-05-09T10:57:38.900Z,5.30
2024-05-09T11:00:27.176Z,4.82
2024-05-09T11:03:18.303Z,6.68
2024-05-09T11:05:52.048Z,5.35
2024-05-09T11:08:23.826Z,5.07
2024-05-09T11:11:12.791Z,5.38
2024-05-09T11:13:51.278Z,4.00
2024-05-09T11:16:22.955Z,4.30
2024-05-09T11:21:27.726Z,4.55
2024-05-09T11:23:55.973Z,4.75
2024-05-09T11:26:32.351Z,6.80
2024-05-09T11:29:02.541Z,7.10
2024-05-09T11:31:33.446Z,2.80
2024-05-09T11:34:05.526Z,5.87
2024-05-09T11:36:39.323Z,4.28
2024-05-09T11:39:07.302Z,5.70
2024-05-09T11:41:40.657Z,3.67
2024-05-09T11:44:08.586Z,4.32
2024-05-09T11:46:39.235Z,4.70
2024-05-09T11:49:07.432Z,6.00
2024-05-09T11:51:38.264Z,4.72
2024-05-09T11:54:06.183Z,3.63
2024-05-09T11:56:42.382Z,4.20
2024-05-09T11:59:10.852Z,6.20
2024-05-09T12:01:41.693Z,6.57
2024-05-09T12:04:10.130Z,4.40
2024-05-09T12:06:40.851Z,6.47
2024-05-09T12:09:08.815Z,5.30
2024-05-09T12:11:42.130Z,4.55
2024-05-09T12:14:12.940Z,4.90
2024-05-09T12:16:41.144Z,5.28
2024-05-09T12:19:11.899Z,3.95
2024-05-09T12:21:39.952Z,4.22
2024-05-09T12:24:10.480Z,6.55
2024-05-09T12:26:41.438Z,5.63
2024-05-09T12:29:12.056Z,3.47
2024-05-09T12:31:40.104Z,4.20
2024-05-09T12:34:11.373Z,4.10
2024-05-09T12:36:39.446Z,4.35
2024-05-09T12:39:10.111Z,8.57
2024-05-09T12:41:40.767Z,12.85
2024-05-09T12:44:11.339Z,5.85
2024-05-09T12:46:39.261Z,3.35
2024-05-09T12:49:10.255Z,4.35
2024-05-09T12:51:38.479Z,4.15
2024-05-09T12:54:09.184Z,6.32
2024-05-09T12:56:37.222Z,3.05
2024-05-09T12:59:13.171Z,8.38
2024-05-09T13:01:41.268Z,5.60
2024-05-09T13:04:12.104Z,4.00
2024-05-09T13:06:40.431Z,3.70
2024-05-09T13:09:12.030Z,11.35
2024-05-09T13:11:39.982Z,2.78
2024-05-09T13:14:13.383Z,8.63
2024-05-09T13:16:41.554Z,5.00
2024-05-09T13:19:12.363Z,2.92
2024-05-09T13:21:40.432Z,5.47
2024-05-09T13:24:11.011Z,4.97
2024-05-09T13:26:38.978Z,5.90
2024-05-09T13:29:10.929Z,3.28
2024-05-09T13:31:41.578Z,7.20
2024-05-09T13:34:12.273Z,11.07
2024-05-09T13:36:40.574Z,9.82
2024-05-09T13:39:11.297Z,11.68
2024-05-09T13:41:39.473Z,5.75
2024-05-09T13:44:10.019Z,10.68
2024-05-09T13:46:38.066Z,7.43
2024-05-09T13:49:18.015Z,8.13
2024-05-09T13:51:52.785Z,9.93
2024-05-09T13:54:26.456Z,6.72
2024-05-09T13:56:54.593Z,7.30
2024-05-09T13:59:26.453Z,10.93
2024-05-09T14:01:54.596Z,5.93
2024-05-09T14:04:29.685Z,7.13
2024-05-09T14:06:58.037Z,8.25
2024-05-09T14:09:28.930Z,8.85
2024-05-09T14:11:56.980Z,6.47
2024-05-09T14:14:27.705Z,8.38
2024-05-09T14:16:55.764Z,11.07
2024-05-09T14:19:29.156Z,11.15
2024-05-09T14:21:57.302Z,12.18
2024-05-09T14:24:28.066Z,10.00
2024-05-09T14:26:55.964Z,8.65
2024-05-09T14:29:26.557Z,5.45
2024-05-09T14:31:54.448Z,7.57
2024-05-09T14:34:30.902Z,8.48
2024-05-09T14:36:59.619Z,6.50
2024-05-09T14:39:30.309Z,8.63
2024-05-09T14:41:58.411Z,9.80
2024-05-09T14:44:29.037Z,5.70
2024-05-09T14:46:57.164Z,4.90
2024-05-09T14:49:31.308Z,10.15
2024-05-09T14:52:00.409Z,6.03
2024-05-09T14:54:31.182Z,6.63
2024-05-09T14:56:59.275Z,7.97
2024-05-09T14:59:30.037Z,6.85
2024-05-09T15:01:58.407Z,8.85
2024-05-09T15:04:32.021Z,9.60
2024-05-09T15:07:00.913Z,6.75
2024-05-09T15:09:41.909Z,8.52
2024-05-09T15:12:09.944Z,5.50
2024-05-09T15:14:40.547Z,9.07
2024-05-09T15:17:11.714Z,17.35
2024-05-09T15:19:45.339Z,6.20
2024-05-09T15:22:16.539Z,6.22
2024-05-09T15:24:48.525Z,6.07
2024-05-09T15:27:17.406Z,10.13
2024-05-09T15:29:50.132Z,7.05
2024-05-09T15:32:24.209Z,6.50
2024-05-09T15:34:57.531Z,6.75
2024-05-09T15:37:25.644Z,7.25
2024-05-09T15:39:59.057Z,10.68
2024-05-09T15:42:27.361Z,10.23
2024-05-09T15:44:57.942Z,5.95
2024-05-09T15:47:27.943Z,7.60
2024-05-09T15:50:01.354Z,11.52
2024-05-09T15:52:32.099Z,12.95
2024-05-09T15:54:59.987Z,8.85
2024-05-09T15:57:30.754Z,5.65
2024-05-09T15:59:58.853Z,6.95
2024-05-09T16:02:29.755Z,8.80
2024-05-09T16:05:00.650Z,5.93
2024-05-09T16:07:31.386Z,8.55
2024-05-09T16:09:59.506Z,6.13
2024-05-09T16:12:30.357Z,6.07
2024-05-09T16:14:58.400Z,5.95
2024-05-09T16:17:34.483Z,6.35
2024-05-09T16:20:09.384Z,12.57
2024-05-09T16:22:46.238Z,5.72
2024-05-09T16:25:14.479Z,8.32
2024-05-09T16:27:45.645Z,5.78
2024-05-09T16:30:21.036Z,10.25
2024-05-09T16:33:00.947Z,7.50
2024-05-09T16:35:31.707Z,6.75
2024-05-09T16:38:02.498Z,8.77
2024-05-09T16:40:37.637Z,15.63
2024-05-09T16:43:14.488Z,5.05
2024-05-09T16:45:45.029Z,7.07
2024-05-09T16:48:17.067Z,5.72
2024-05-09T16:50:47.749Z,6.35
2024-05-09T16:53:18.359Z,5.97
2024-05-09T16:55:46.256Z,8.65
2024-05-09T16:58:17.024Z,8.02
2024-05-09T17:00:45.328Z,5.63
2024-05-09T17:03:17.551Z,6.20
2024-05-09T17:05:50.897Z,4.13
2024-05-09T17:08:25.303Z,4.63
2024-05-09T17:10:56.022Z,8.35
2024-05-09T17:13:27.005Z,5.55
2024-05-09T17:16:00.784Z,4.75
2024-05-09T17:18:31.898Z,5.15
2024-05-09T17:21:02.662Z,9.48
2024-05-09T17:23:35.052Z,7.15
2024-05-09T17:26:03.189Z,8.82
2024-05-09T17:28:34.004Z,4.95
2024-05-09T17:31:02.094Z,7.40
2024-05-09T17:33:32.996Z,5.47
2024-05-09T17:36:03.820Z,6.22
2024-05-09T17:38:34.479Z,9.10
2024-05-09T17:41:02.529Z,6.43
2024-05-09T17:43:36.220Z,7.32
2024-05-09T17:46:04.611Z,7.35
2024-05-09T17:48:36.074Z,10.98
2024-05-09T17:51:07.127Z,5.25
2024-05-09T17:53:37.903Z,7.25
2024-05-09T17:56:11.847Z,6.82
2024-05-09T17:58:41.201Z,7.22
2024-05-09T18:01:12.178Z,8.50
2024-05-09T18:03:41.472Z,7.80
2024-05-09T18:06:16.821Z,7.57
2024-05-09T18:08:44.991Z,5.97
2024-05-09T18:11:18.480Z,8.23
2024-05-09T18:13:48.481Z,8.02
2024-05-09T18:16:19.951Z,8.85
2024-05-09T18:18:48.800Z,6.13
2024-05-09T18:21:25.858Z,13.40
2024-05-09T18:23:56.766Z,6.00
2024-05-09T18:26:31.724Z,6.07
2024-05-09T18:28:59.763Z,6.05
2024-05-09T18:31:33.428Z,9.02
2024-05-09T18:34:01.440Z,7.70
2024-05-09T18:36:35.015Z,8.20
2024-05-09T18:39:03.374Z,6.90
2024-05-09T18:41:33.942Z,9.38
2024-05-09T18:44:02.016Z,14.32
2024-05-09T18:46:32.935Z,16.88
2024-05-09T18:51:35.377Z,14.38
2024-05-09T18:54:03.562Z,9.13
2024-05-09T18:56:34.143Z,14.98
2024-05-09T18:59:02.069Z,9.65
2024-05-09T19:01:32.853Z,7.85
2024-05-09T19:04:01.043Z,18.10
2024-05-09T19:06:39.211Z,8.40
2024-05-09T19:09:07.099Z,8.57
2024-05-09T19:11:40.184Z,7.38
2024-05-09T19:14:12.487Z,8.10
2024-05-09T19:16:48.311Z,9.13
2024-05-09T19:19:16.627Z,12.32
2024-05-09T19:21:50.262Z,12.15
2024-05-09T19:24:18.338Z,11.00
2024-05-09T19:26:49.401Z,13.32
2024-05-09T19:29:17.400Z,9.45
2024-05-09T19:31:48.093Z,12.90
2024-05-09T19:34:17.582Z,13.52
2024-05-09T19:36:51.512Z,12.15
2024-05-09T19:39:22.774Z,13.07
2024-05-09T19:41:54.426Z,12.57
2024-05-09T19:44:22.802Z,11.70
2024-05-09T19:46:53.563Z,13.32
2024-05-09T19:49:21.683Z,11.82
2024-05-09T19:51:55.198Z,10.25
2024-05-09T19:54:23.273Z,11.15
2024-05-09T19:56:54.101Z,11.50
2024-05-09T19:59:22.033Z,11.90
2024-05-09T20:01:52.890Z,11.95
2024-05-09T20:04:21.894Z,10.88
2024-05-09T20:06:55.174Z,12.18
2024-05-09T20:09:23.769Z,10.32
2024-05-09T20:11:54.384Z,10.35
2024-05-09T20:14:23.700Z,14.50
2024-05-09T20:16:54.335Z,13.75
2024-05-09T20:19:22.508Z,14.13
2024-05-09T20:21:56.111Z,12.48
2024-05-09T20:24:26.744Z,11.30
2024-05-09T20:26:54.710Z,14.05
2024-05-09T20:29:25.639Z,10.50
2024-05-09T20:31:53.620Z,11.50
2024-05-09T20:34:30.293Z,12.82
2024-05-09T20:37:02.244Z,18.80
2024-05-09T20:39:34.776Z,15.38
2024-05-09T20:42:03.217Z,16.77
2024-05-09T20:44:36.836Z,10.35
2024-05-09T20:47:05.131Z,12.48
2024-05-09T20:49:35.795Z,13.23
2024-05-09T20:52:06.868Z,18.00
2024-05-09T20:54:37.549Z,15.57
2024-05-09T20:57:06.634Z,15.35
2024-05-09T20:59:37.252Z,15.45
2024-05-09T21:02:05.644Z,14.68
2024-05-09T21:04:36.506Z,25.25
2024-05-09T21:07:07.297Z,14.57
2024-05-09T21:09:37.903Z,14.40
2024-05-09T21:12:06.228Z,14.93
2024-05-09T21:14:36.817Z,13.23
2024-05-09T21:17:05.255Z,15.18
2024-05-09T21:19:35.969Z,15.90
2024-05-09T21:22:06.656Z,15.27
2024-05-09T21:24:37.592Z,15.43
2024-05-09T21:27:05.984Z,16.95
2024-05-09T21:29:36.488Z,16.75
2024-05-09T21:32:04.582Z,13.13
2024-05-09T21:34:37.964Z,15.35
2024-05-09T21:37:08.798Z,14.15
2024-05-09T21:39:39.641Z,12.45
2024-05-09T21:42:07.588Z,15.10
2024-05-09T21:44:38.158Z,17.02
2024-05-09T21:47:06.319Z,18.45
2024-05-09T21:49:36.984Z,17.83
2024-05-09T21:52:08.401Z,19.27
2024-05-09T21:54:39.085Z,17.10
2024-05-09T21:57:09.126Z,14.50
2024-05-09T21:59:40.512Z,13.35
2024-05-09T22:02:08.745Z,15.65
2024-05-09T22:04:39.422Z,20.00
2024-05-09T22:07:10.312Z,14.02
2024-05-09T22:09:46.541Z,14.15
2024-05-09T22:12:14.766Z,18.92
2024-05-09T22:14:47.944Z,14.02
2024-05-09T22:17:16.092Z,12.43
2024-05-09T22:19:48.659Z,14.23
2024-05-09T22:22:21.633Z,17.45
2024-05-09T22:24:52.439Z,15.20
2024-05-09T22:27:21.031Z,12.88
2024-05-09T22:29:52.765Z,12.57
2024-05-09T22:32:20.787Z,17.13
2024-05-09T22:34:54.239Z,17.27
2024-05-09T22:37:25.565Z,11.95
2024-05-09T22:39:56.356Z,16.42
2024-05-09T22:42:24.473Z,20.35
2024-05-09T22:44:55.049Z,13.68
2024-05-09T22:47:23.099Z,12.05
2024-05-09T22:49:53.823Z,14.98
2024-05-09T22:52:22.566Z,21.77
2024-05-09T22:54:55.869Z,15.13
2024-05-09T22:57:25.903Z,12.45
2024-05-09T22:59:56.642Z,16.88
2024-05-09T23:02:24.678Z,14.07
2024-05-09T23:04:55.775Z,13.05
2024-05-09T23:07:24.879Z,12.98
2024-05-09T23:09:58.248Z,12.07
2024-05-09T23:12:26.422Z,14.85
2024-05-09T23:14:56.990Z,13.40
2024-05-09T23:17:24.990Z,12.35
2024-05-09T23:19:55.791Z,12.57
2024-05-09T23:22:26.872Z,12.80
2024-05-09T23:25:00.287Z,14.13
2024-05-09T23:27:28.404Z,10.45
2024-05-09T23:29:59.182Z,10.30
2024-05-09T23:32:27.410Z,12.95
2024-05-09T23:34:58.267Z,12.15
2024-05-09T23:37:26.490Z,12.57
2024-05-09T23:40:00.152Z,10.65
2024-05-09T23:42:28.341Z,13.40
2024-05-09T23:44:58.958Z,13.95
2024-05-09T23:47:26.947Z,11.50
2024-05-09T23:49:57.624Z,10.57
2024-05-09T23:52:25.758Z,10.68
2024-05-09T23:54:56.666Z,11.90
2024-05-09T23:57:27.347Z,10.57
2024-05-09T23:59:58.262Z,13.40
